Pagrindinis puslapis
METAR-TAF:

METAR-TAF

Oro uostai :

Bania Luka, Bosnija ir Hercegovina

platuma: 44-47N, ilguma: 017-13E, Aukštis: 156 m

Dabartinis oras

Ataskaita buvo paskelbta 22 minutes, ne 23:00 UTC
Vėjas 2 kt iš Rytų/Pietryčių
Temperatūra 3°C
Drėgmė 52%
Slėgis 1031 hPa
Matomumas 10 km arba daugiau
nėra debesų žemiau 1500 m ir nėra kamuolinių lietaus debesų

METAR: LQBK 072300Z 11002KT CAVOK 03/M06 Q1031 NOSIG

Laikas: 01:22 (23:22 UTC)

Prognozė

Ataskaita buvo paskelbta 6 valandos ir 22 minutes, ne 17:00 UTC
Prognozė galioja nuo 07 metu 18 UTC su 08 metu 18 UTC
Vėjas 5 kt iš Šiaurės/Šiaurės Rytų
Matomumas 10 km arba daugiau
nėra debesų žemiau 1500 m ir nėra kamuolinių lietaus debesų
Tikimybė 30% :
Laikinai
nuo 07 metu 18 UTC su 07 metu 20 UTC
Vėjas 10 kt iš Rytų
Tikimybė 40% :
Laikinai
nuo 08 metu 11 UTC su 08 metu 17 UTC
Vėjas 10 kt iš Rytų

TAF: LQBK 071700Z 0718/0818 03005KT CAVOK TX21/0813Z TN02/0803Z PROB30 TEMPO 0718/0720 09010KT PROB40 TEMPO 0811/0817 09010KT

Orai ataskaitas ir orų prognozės (METAR, TAF).

turimą stotys yra geltonos ir raudonos taškus žemėlapyje.

Perkelti pele per norėdami pamatyti stoties vardą.

Tada spustelėkite, norėdami matyti oro stebėjimo ir prognozės.

Norėdami pakeisti žemėlapį: spustelėkite ant žalios mygtukų su juodo kryžiaus žemyn,; žalią mygtuką su brūkšneliu, jei norite nutolinti; arba žalių rodyklių gretimoms žemėlapius.


METAR-TAF: